sensor_id;sensor_type;location;lat;lon;timestamp;P1;durP1;ratioP1;P2;durP2;ratioP2
18144;SDS011;14857;41.200;-8.326;2022-09-16T00:01:28;9.05;;;2.80;;
18144;SDS011;14857;41.200;-8.326;2022-09-16T00:03:56;11.20;;;2.95;;
18144;SDS011;14857;41.200;-8.326;2022-09-16T00:06:27;9.23;;;2.78;;
18144;SDS011;14857;41.200;-8.326;2022-09-16T00:08:57;6.32;;;3.03;;
18144;SDS011;14857;41.200;-8.326;2022-09-16T00:11:28;8.15;;;2.58;;
18144;SDS011;14857;41.200;-8.326;2022-09-16T00:14:00;6.20;;;2.55;;
18144;SDS011;14857;41.200;-8.326;2022-09-16T00:16:29;8.75;;;2.85;;
18144;SDS011;14857;41.200;-8.326;2022-09-16T00:18:58;7.50;;;2.88;;
18144;SDS011;14857;41.200;-8.326;2022-09-16T00:21:30;12.15;;;2.65;;
18144;SDS011;14857;41.200;-8.326;2022-09-16T00:23:59;14.55;;;3.10;;
18144;SDS011;14857;41.200;-8.326;2022-09-16T00:26:27;8.15;;;2.70;;
18144;SDS011;14857;41.200;-8.326;2022-09-16T00:28:56;4.82;;;2.13;;
18144;SDS011;14857;41.200;-8.326;2022-09-16T00:31:25;9.65;;;2.45;;
18144;SDS011;14857;41.200;-8.326;2022-09-16T00:33:53;7.93;;;3.25;;
18144;SDS011;14857;41.200;-8.326;2022-09-16T00:36:22;11.40;;;3.10;;
18144;SDS011;14857;41.200;-8.326;2022-09-16T00:38:53;6.82;;;2.75;;
18144;SDS011;14857;41.200;-8.326;2022-09-16T00:41:22;9.25;;;3.30;;
18144;SDS011;14857;41.200;-8.326;2022-09-16T00:43:53;8.38;;;4.43;;
18144;SDS011;14857;41.200;-8.326;2022-09-16T00:46:25;9.98;;;3.30;;
18144;SDS011;14857;41.200;-8.326;2022-09-16T00:49:00;9.38;;;4.05;;
18144;SDS011;14857;41.200;-8.326;2022-09-16T00:51:31;9.77;;;3.83;;
18144;SDS011;14857;41.200;-8.326;2022-09-16T00:54:02;7.85;;;3.58;;
18144;SDS011;14857;41.200;-8.326;2022-09-16T00:56:36;8.88;;;3.03;;
18144;SDS011;14857;41.200;-8.326;2022-09-16T00:59:07;9.88;;;3.30;;
18144;SDS011;14857;41.200;-8.326;2022-09-16T01:01:38;7.78;;;2.97;;
18144;SDS011;14857;41.200;-8.326;2022-09-16T01:04:12;13.50;;;3.45;;
18144;SDS011;14857;41.200;-8.326;2022-09-16T01:06:43;12.85;;;3.38;;
18144;SDS011;14857;41.200;-8.326;2022-09-16T01:09:13;9.13;;;3.92;;
18144;SDS011;14857;41.200;-8.326;2022-09-16T01:11:42;8.15;;;3.63;;
18144;SDS011;14857;41.200;-8.326;2022-09-16T01:14:11;8.35;;;3.75;;
18144;SDS011;14857;41.200;-8.326;2022-09-16T01:16:58;8.73;;;3.28;;
18144;SDS011;14857;41.200;-8.326;2022-09-16T01:19:48;6.03;;;3.15;;
18144;SDS011;14857;41.200;-8.326;2022-09-16T01:22:39;6.38;;;3.40;;
18144;SDS011;14857;41.200;-8.326;2022-09-16T01:25:22;11.45;;;2.83;;
18144;SDS011;14857;41.200;-8.326;2022-09-16T01:28:11;9.95;;;3.65;;
18144;SDS011;14857;41.200;-8.326;2022-09-16T01:31:00;10.70;;;3.28;;
18144;SDS011;14857;41.200;-8.326;2022-09-16T01:33:41;12.07;;;3.70;;
18144;SDS011;14857;41.200;-8.326;2022-09-16T01:36:21;8.38;;;4.25;;
18144;SDS011;14857;41.200;-8.326;2022-09-16T01:39:04;8.55;;;3.47;;
18144;SDS011;14857;41.200;-8.326;2022-09-16T01:41:42;19.10;;;4.25;;
18144;SDS011;14857;41.200;-8.326;2022-09-16T01:44:22;15.32;;;3.85;;
18144;SDS011;14857;41.200;-8.326;2022-09-16T01:46:58;10.35;;;3.63;;
18144;SDS011;14857;41.200;-8.326;2022-09-16T01:49:34;11.70;;;3.78;;
18144;SDS011;14857;41.200;-8.326;2022-09-16T01:52:13;7.97;;;3.00;;
18144;SDS011;14857;41.200;-8.326;2022-09-16T01:54:52;6.80;;;2.88;;
18144;SDS011;14857;41.200;-8.326;2022-09-16T01:57:28;5.57;;;2.92;;
18144;SDS011;14857;41.200;-8.326;2022-09-16T02:00:04;11.10;;;2.95;;
18144;SDS011;14857;41.200;-8.326;2022-09-16T02:02:38;5.95;;;3.10;;
18144;SDS011;14857;41.200;-8.326;2022-09-16T02:05:13;8.40;;;3.40;;
18144;SDS011;14857;41.200;-8.326;2022-09-16T02:07:46;8.05;;;3.20;;
18144;SDS011;14857;41.200;-8.326;2022-09-16T02:10:21;5.28;;;3.25;;
18144;SDS011;14857;41.200;-8.326;2022-09-16T02:12:54;12.57;;;3.40;;
18144;SDS011;14857;41.200;-8.326;2022-09-16T02:15:27;11.88;;;3.65;;
18144;SDS011;14857;41.200;-8.326;2022-09-16T02:18:00;14.25;;;3.35;;
18144;SDS011;14857;41.200;-8.326;2022-09-16T02:20:32;7.47;;;3.90;;
18144;SDS011;14857;41.200;-8.326;2022-09-16T02:23:06;11.60;;;3.47;;
18144;SDS011;14857;41.200;-8.326;2022-09-16T02:25:42;9.25;;;4.10;;
18144;SDS011;14857;41.200;-8.326;2022-09-16T02:28:15;11.80;;;3.42;;
18144;SDS011;14857;41.200;-8.326;2022-09-16T02:30:48;7.47;;;3.10;;
18144;SDS011;14857;41.200;-8.326;2022-09-16T02:33:20;9.35;;;3.28;;
18144;SDS011;14857;41.200;-8.326;2022-09-16T02:35:51;7.60;;;3.15;;
18144;SDS011;14857;41.200;-8.326;2022-09-16T02:38:23;8.98;;;3.60;;
18144;SDS011;14857;41.200;-8.326;2022-09-16T02:40:56;8.05;;;3.17;;
18144;SDS011;14857;41.200;-8.326;2022-09-16T02:43:26;10.82;;;3.30;;
18144;SDS011;14857;41.200;-8.326;2022-09-16T02:45:57;7.65;;;3.10;;
18144;SDS011;14857;41.200;-8.326;2022-09-16T02:48:38;6.45;;;2.50;;
18144;SDS011;14857;41.200;-8.326;2022-09-16T02:51:16;9.00;;;3.00;;
18144;SDS011;14857;41.200;-8.326;2022-09-16T02:53:52;12.88;;;3.40;;
18144;SDS011;14857;41.200;-8.326;2022-09-16T02:56:25;7.35;;;3.20;;
18144;SDS011;14857;41.200;-8.326;2022-09-16T02:58:58;11.93;;;3.20;;
18144;SDS011;14857;41.200;-8.326;2022-09-16T03:01:27;8.98;;;3.33;;
18144;SDS011;14857;41.200;-8.326;2022-09-16T03:04:01;12.82;;;3.40;;
18144;SDS011;14857;41.200;-8.326;2022-09-16T03:06:30;7.60;;;3.58;;
18144;SDS011;14857;41.200;-8.326;2022-09-16T03:09:02;9.73;;;2.97;;
18144;SDS011;14857;41.200;-8.326;2022-09-16T03:11:38;6.13;;;3.28;;
18144;SDS011;14857;41.200;-8.326;2022-09-16T03:14:33;9.27;;;3.17;;
18144;SDS011;14857;41.200;-8.326;2022-09-16T03:17:14;10.68;;;3.20;;
18144;SDS011;14857;41.200;-8.326;2022-09-16T03:19:58;9.98;;;3.05;;
18144;SDS011;14857;41.200;-8.326;2022-09-16T03:22:41;7.80;;;3.50;;
18144;SDS011;14857;41.200;-8.326;2022-09-16T03:25:19;7.38;;;3.45;;
18144;SDS011;14857;41.200;-8.326;2022-09-16T03:27:56;11.02;;;2.97;;
18144;SDS011;14857;41.200;-8.326;2022-09-16T03:30:30;11.50;;;3.80;;
18144;SDS011;14857;41.200;-8.326;2022-09-16T03:33:03;13.18;;;3.85;;
18144;SDS011;14857;41.200;-8.326;2022-09-16T03:35:39;16.23;;;3.78;;
18144;SDS011;14857;41.200;-8.326;2022-09-16T03:38:12;8.43;;;3.33;;
18144;SDS011;14857;41.200;-8.326;2022-09-16T03:40:41;9.30;;;3.70;;
18144;SDS011;14857;41.200;-8.326;2022-09-16T03:43:11;9.23;;;3.53;;
18144;SDS011;14857;41.200;-8.326;2022-09-16T03:45:41;10.75;;;3.80;;
18144;SDS011;14857;41.200;-8.326;2022-09-16T03:48:11;13.55;;;3.83;;
18144;SDS011;14857;41.200;-8.326;2022-09-16T03:50:41;10.18;;;3.92;;
18144;SDS011;14857;41.200;-8.326;2022-09-16T03:53:10;9.63;;;3.25;;
18144;SDS011;14857;41.200;-8.326;2022-09-16T03:55:38;7.50;;;2.97;;
18144;SDS011;14857;41.200;-8.326;2022-09-16T03:58:07;7.85;;;3.22;;
18144;SDS011;14857;41.200;-8.326;2022-09-16T04:03:40;9.85;;;4.28;;
18144;SDS011;14857;41.200;-8.326;2022-09-16T04:06:10;7.75;;;3.22;;
18144;SDS011;14857;41.200;-8.326;2022-09-16T04:08:38;9.20;;;3.90;;
18144;SDS011;14857;41.200;-8.326;2022-09-16T04:11:09;8.50;;;3.17;;
18144;SDS011;14857;41.200;-8.326;2022-09-16T04:13:38;11.40;;;3.63;;
18144;SDS011;14857;41.200;-8.326;2022-09-16T04:16:06;8.00;;;2.88;;
18144;SDS011;14857;41.200;-8.326;2022-09-16T04:18:35;13.40;;;3.75;;
18144;SDS011;14857;41.200;-8.326;2022-09-16T04:21:03;9.10;;;3.17;;
18144;SDS011;14857;41.200;-8.326;2022-09-16T04:23:34;8.90;;;3.47;;
18144;SDS011;14857;41.200;-8.326;2022-09-16T04:26:03;11.48;;;3.45;;
18144;SDS011;14857;41.200;-8.326;2022-09-16T04:28:31;4.97;;;3.13;;
18144;SDS011;14857;41.200;-8.326;2022-09-16T04:31:01;9.93;;;3.80;;
18144;SDS011;14857;41.200;-8.326;2022-09-16T04:33:32;11.95;;;5.07;;
18144;SDS011;14857;41.200;-8.326;2022-09-16T04:36:02;15.60;;;5.22;;
18144;SDS011;14857;41.200;-8.326;2022-09-16T04:38:32;13.35;;;5.07;;
18144;SDS011;14857;41.200;-8.326;2022-09-16T04:41:02;12.60;;;5.60;;
18144;SDS011;14857;41.200;-8.326;2022-09-16T04:43:32;13.60;;;4.60;;
18144;SDS011;14857;41.200;-8.326;2022-09-16T04:46:01;12.85;;;5.10;;
18144;SDS011;14857;41.200;-8.326;2022-09-16T04:48:29;13.32;;;5.28;;
18144;SDS011;14857;41.200;-8.326;2022-09-16T04:51:01;15.60;;;5.40;;
18144;SDS011;14857;41.200;-8.326;2022-09-16T04:53:31;20.58;;;5.22;;
18144;SDS011;14857;41.200;-8.326;2022-09-16T04:56:03;12.48;;;3.97;;
18144;SDS011;14857;41.200;-8.326;2022-09-16T04:58:33;17.67;;;4.57;;
18144;SDS011;14857;41.200;-8.326;2022-09-16T05:01:05;13.93;;;4.38;;
18144;SDS011;14857;41.200;-8.326;2022-09-16T05:03:38;19.65;;;4.32;;
18144;SDS011;14857;41.200;-8.326;2022-09-16T05:06:08;16.90;;;3.95;;
18144;SDS011;14857;41.200;-8.326;2022-09-16T05:08:45;12.57;;;4.32;;
18144;SDS011;14857;41.200;-8.326;2022-09-16T05:11:15;12.25;;;4.78;;
18144;SDS011;14857;41.200;-8.326;2022-09-16T05:13:44;23.60;;;5.15;;
18144;SDS011;14857;41.200;-8.326;2022-09-16T05:16:13;22.38;;;5.50;;
18144;SDS011;14857;41.200;-8.326;2022-09-16T05:18:44;15.07;;;5.82;;
18144;SDS011;14857;41.200;-8.326;2022-09-16T05:21:14;30.45;;;6.25;;
18144;SDS011;14857;41.200;-8.326;2022-09-16T05:23:46;20.10;;;6.18;;
18144;SDS011;14857;41.200;-8.326;2022-09-16T05:26:16;22.17;;;6.43;;
18144;SDS011;14857;41.200;-8.326;2022-09-16T05:28:46;21.02;;;5.90;;
18144;SDS011;14857;41.200;-8.326;2022-09-16T05:31:17;17.40;;;5.40;;
18144;SDS011;14857;41.200;-8.326;2022-09-16T05:33:52;17.42;;;6.05;;
18144;SDS011;14857;41.200;-8.326;2022-09-16T05:36:23;26.30;;;6.68;;
18144;SDS011;14857;41.200;-8.326;2022-09-16T05:38:55;20.80;;;6.72;;
18144;SDS011;14857;41.200;-8.326;2022-09-16T05:41:44;20.23;;;6.40;;
18144;SDS011;14857;41.200;-8.326;2022-09-16T05:44:12;26.67;;;6.93;;
18144;SDS011;14857;41.200;-8.326;2022-09-16T05:46:41;19.88;;;6.53;;
18144;SDS011;14857;41.200;-8.326;2022-09-16T05:49:10;23.17;;;7.40;;
18144;SDS011;14857;41.200;-8.326;2022-09-16T05:51:39;26.42;;;7.10;;
18144;SDS011;14857;41.200;-8.326;2022-09-16T05:54:09;20.73;;;6.53;;
18144;SDS011;14857;41.200;-8.326;2022-09-16T05:56:38;18.77;;;6.25;;
18144;SDS011;14857;41.200;-8.326;2022-09-16T05:59:09;20.65;;;6.57;;
18144;SDS011;14857;41.200;-8.326;2022-09-16T06:01:38;28.90;;;6.90;;
18144;SDS011;14857;41.200;-8.326;2022-09-16T06:04:08;17.15;;;7.13;;
18144;SDS011;14857;41.200;-8.326;2022-09-16T06:06:39;14.30;;;7.22;;
18144;SDS011;14857;41.200;-8.326;2022-09-16T06:09:10;16.80;;;7.03;;
18144;SDS011;14857;41.200;-8.326;2022-09-16T06:11:41;20.27;;;8.25;;
18144;SDS011;14857;41.200;-8.326;2022-09-16T06:14:13;16.92;;;7.13;;
18144;SDS011;14857;41.200;-8.326;2022-09-16T06:16:43;19.50;;;7.15;;
18144;SDS011;14857;41.200;-8.326;2022-09-16T06:19:13;16.08;;;7.10;;
18144;SDS011;14857;41.200;-8.326;2022-09-16T06:21:43;13.93;;;5.95;;
18144;SDS011;14857;41.200;-8.326;2022-09-16T06:24:15;16.75;;;6.40;;
18144;SDS011;14857;41.200;-8.326;2022-09-16T06:26:45;16.75;;;6.32;;
18144;SDS011;14857;41.200;-8.326;2022-09-16T06:29:15;15.85;;;6.47;;
18144;SDS011;14857;41.200;-8.326;2022-09-16T06:31:44;16.50;;;5.88;;
18144;SDS011;14857;41.200;-8.326;2022-09-16T06:34:14;16.35;;;6.25;;
18144;SDS011;14857;41.200;-8.326;2022-09-16T06:36:44;20.02;;;5.78;;
18144;SDS011;14857;41.200;-8.326;2022-09-16T06:39:14;11.70;;;5.80;;
18144;SDS011;14857;41.200;-8.326;2022-09-16T06:41:43;13.27;;;5.30;;
18144;SDS011;14857;41.200;-8.326;2022-09-16T06:44:12;20.73;;;7.32;;
18144;SDS011;14857;41.200;-8.326;2022-09-16T06:46:41;16.08;;;6.57;;
18144;SDS011;14857;41.200;-8.326;2022-09-16T06:49:10;15.07;;;5.50;;
18144;SDS011;14857;41.200;-8.326;2022-09-16T06:51:38;17.35;;;5.78;;
18144;SDS011;14857;41.200;-8.326;2022-09-16T06:54:07;11.55;;;5.47;;
18144;SDS011;14857;41.200;-8.326;2022-09-16T06:56:39;15.25;;;5.25;;
18144;SDS011;14857;41.200;-8.326;2022-09-16T06:59:08;15.80;;;5.63;;
18144;SDS011;14857;41.200;-8.326;2022-09-16T07:01:40;16.23;;;5.57;;
18144;SDS011;14857;41.200;-8.326;2022-09-16T07:04:09;12.98;;;5.95;;
18144;SDS011;14857;41.200;-8.326;2022-09-16T07:06:39;14.45;;;6.25;;
18144;SDS011;14857;41.200;-8.326;2022-09-16T07:09:28;10.27;;;5.20;;
18144;SDS011;14857;41.200;-8.326;2022-09-16T07:11:58;11.00;;;5.15;;
18144;SDS011;14857;41.200;-8.326;2022-09-16T07:14:27;12.38;;;5.85;;
18144;SDS011;14857;41.200;-8.326;2022-09-16T07:16:58;10.40;;;5.50;;
18144;SDS011;14857;41.200;-8.326;2022-09-16T07:19:27;10.07;;;5.88;;
18144;SDS011;14857;41.200;-8.326;2022-09-16T07:21:56;13.57;;;4.93;;
18144;SDS011;14857;41.200;-8.326;2022-09-16T07:24:25;9.85;;;4.88;;
18144;SDS011;14857;41.200;-8.326;2022-09-16T07:26:54;8.90;;;4.68;;
18144;SDS011;14857;41.200;-8.326;2022-09-16T07:29:23;9.68;;;4.68;;
18144;SDS011;14857;41.200;-8.326;2022-09-16T07:31:53;8.20;;;4.70;;
18144;SDS011;14857;41.200;-8.326;2022-09-16T07:34:21;13.23;;;5.72;;
18144;SDS011;14857;41.200;-8.326;2022-09-16T07:36:50;14.00;;;5.25;;
18144;SDS011;14857;41.200;-8.326;2022-09-16T07:39:18;13.93;;;5.15;;
18144;SDS011;14857;41.200;-8.326;2022-09-16T07:41:47;10.05;;;4.70;;
18144;SDS011;14857;41.200;-8.326;2022-09-16T07:44:16;9.70;;;4.88;;
18144;SDS011;14857;41.200;-8.326;2022-09-16T07:46:47;11.30;;;5.20;;
18144;SDS011;14857;41.200;-8.326;2022-09-16T07:49:17;9.00;;;4.97;;
18144;SDS011;14857;41.200;-8.326;2022-09-16T07:51:46;13.00;;;5.50;;
18144;SDS011;14857;41.200;-8.326;2022-09-16T07:54:15;10.48;;;5.15;;
18144;SDS011;14857;41.200;-8.326;2022-09-16T07:56:46;11.13;;;4.82;;
18144;SDS011;14857;41.200;-8.326;2022-09-16T07:59:15;10.10;;;4.65;;
18144;SDS011;14857;41.200;-8.326;2022-09-16T08:01:47;10.20;;;4.65;;
18144;SDS011;14857;41.200;-8.326;2022-09-16T08:04:17;9.40;;;4.82;;
18144;SDS011;14857;41.200;-8.326;2022-09-16T08:06:46;11.15;;;5.00;;
18144;SDS011;14857;41.200;-8.326;2022-09-16T08:09:15;8.52;;;4.85;;
18144;SDS011;14857;41.200;-8.326;2022-09-16T08:12:05;8.45;;;4.95;;
18144;SDS011;14857;41.200;-8.326;2022-09-16T08:14:38;7.55;;;5.20;;
18144;SDS011;14857;41.200;-8.326;2022-09-16T08:17:07;7.35;;;5.32;;
18144;SDS011;14857;41.200;-8.326;2022-09-16T08:19:37;13.63;;;5.53;;
18144;SDS011;14857;41.200;-8.326;2022-09-16T08:22:07;10.60;;;5.35;;
18144;SDS011;14857;41.200;-8.326;2022-09-16T08:24:36;10.77;;;5.68;;
18144;SDS011;14857;41.200;-8.326;2022-09-16T08:27:05;9.70;;;5.82;;
18144;SDS011;14857;41.200;-8.326;2022-09-16T08:29:34;8.18;;;4.85;;
18144;SDS011;14857;41.200;-8.326;2022-09-16T08:32:02;8.85;;;6.07;;
18144;SDS011;14857;41.200;-8.326;2022-09-16T08:34:32;10.15;;;5.40;;
18144;SDS011;14857;41.200;-8.326;2022-09-16T08:37:01;12.93;;;5.28;;
18144;SDS011;14857;41.200;-8.326;2022-09-16T08:39:30;16.38;;;6.15;;
18144;SDS011;14857;41.200;-8.326;2022-09-16T08:45:01;7.13;;;4.95;;
18144;SDS011;14857;41.200;-8.326;2022-09-16T08:47:54;8.68;;;5.18;;
18144;SDS011;14857;41.200;-8.326;2022-09-16T08:50:36;8.73;;;5.50;;
18144;SDS011;14857;41.200;-8.326;2022-09-16T08:53:10;9.68;;;5.57;;
18144;SDS011;14857;41.200;-8.326;2022-09-16T08:56:06;7.28;;;4.78;;
18144;SDS011;14857;41.200;-8.326;2022-09-16T08:58:46;5.57;;;4.38;;
18144;SDS011;14857;41.200;-8.326;2022-09-16T09:01:23;9.70;;;5.50;;
18144;SDS011;14857;41.200;-8.326;2022-09-16T09:03:58;9.25;;;5.00;;
18144;SDS011;14857;41.200;-8.326;2022-09-16T09:06:39;10.18;;;4.68;;
18144;SDS011;14857;41.200;-8.326;2022-09-16T09:09:22;10.63;;;5.60;;
18144;SDS011;14857;41.200;-8.326;2022-09-16T09:12:21;8.38;;;4.88;;
18144;SDS011;14857;41.200;-8.326;2022-09-16T09:15:28;8.35;;;5.00;;
18144;SDS011;14857;41.200;-8.326;2022-09-16T09:18:23;7.32;;;4.78;;
18144;SDS011;14857;41.200;-8.326;2022-09-16T09:21:04;15.18;;;5.68;;
18144;SDS011;14857;41.200;-8.326;2022-09-16T09:23:50;10.40;;;4.85;;
18144;SDS011;14857;41.200;-8.326;2022-09-16T09:26:34;8.32;;;5.00;;
18144;SDS011;14857;41.200;-8.326;2022-09-16T09:32:17;11.75;;;5.60;;
18144;SDS011;14857;41.200;-8.326;2022-09-16T09:35:01;11.38;;;5.68;;
18144;SDS011;14857;41.200;-8.326;2022-09-16T09:37:44;7.75;;;5.22;;
18144;SDS011;14857;41.200;-8.326;2022-09-16T09:40:25;12.65;;;5.70;;
18144;SDS011;14857;41.200;-8.326;2022-09-16T09:43:03;8.95;;;5.90;;
18144;SDS011;14857;41.200;-8.326;2022-09-16T09:45:37;9.30;;;5.40;;
18144;SDS011;14857;41.200;-8.326;2022-09-16T09:48:14;12.35;;;6.95;;
18144;SDS011;14857;41.200;-8.326;2022-09-16T09:50:47;8.40;;;6.05;;
18144;SDS011;14857;41.200;-8.326;2022-09-16T09:53:17;10.15;;;5.82;;
18144;SDS011;14857;41.200;-8.326;2022-09-16T09:55:53;8.52;;;5.18;;
18144;SDS011;14857;41.200;-8.326;2022-09-16T09:58:29;7.30;;;4.68;;
18144;SDS011;14857;41.200;-8.326;2022-09-16T10:01:04;8.55;;;4.60;;
18144;SDS011;14857;41.200;-8.326;2022-09-16T10:03:32;8.65;;;4.88;;
18144;SDS011;14857;41.200;-8.326;2022-09-16T10:06:03;8.70;;;5.35;;
18144;SDS011;14857;41.200;-8.326;2022-09-16T10:08:33;6.70;;;4.60;;
18144;SDS011;14857;41.200;-8.326;2022-09-16T10:11:15;6.32;;;4.38;;
18144;SDS011;14857;41.200;-8.326;2022-09-16T10:13:46;5.95;;;4.32;;
18144;SDS011;14857;41.200;-8.326;2022-09-16T10:16:17;6.80;;;4.50;;
18144;SDS011;14857;41.200;-8.326;2022-09-16T10:18:52;9.18;;;4.75;;
18144;SDS011;14857;41.200;-8.326;2022-09-16T10:21:24;9.93;;;4.68;;
18144;SDS011;14857;41.200;-8.326;2022-09-16T10:23:53;9.70;;;4.78;;
18144;SDS011;14857;41.200;-8.326;2022-09-16T10:26:25;7.05;;;4.20;;
18144;SDS011;14857;41.200;-8.326;2022-09-16T10:28:56;7.55;;;4.50;;
18144;SDS011;14857;41.200;-8.326;2022-09-16T10:31:27;7.88;;;4.40;;
18144;SDS011;14857;41.200;-8.326;2022-09-16T10:34:02;6.13;;;3.85;;
18144;SDS011;14857;41.200;-8.326;2022-09-16T10:36:33;6.13;;;3.90;;
18144;SDS011;14857;41.200;-8.326;2022-09-16T10:39:02;5.47;;;3.60;;
18144;SDS011;14857;41.200;-8.326;2022-09-16T10:41:34;7.80;;;3.55;;
18144;SDS011;14857;41.200;-8.326;2022-09-16T10:44:12;6.38;;;4.13;;
18144;SDS011;14857;41.200;-8.326;2022-09-16T10:46:50;5.00;;;3.60;;
18144;SDS011;14857;41.200;-8.326;2022-09-16T10:49:25;5.13;;;3.28;;
18144;SDS011;14857;41.200;-8.326;2022-09-16T10:52:06;6.00;;;2.95;;
18144;SDS011;14857;41.200;-8.326;2022-09-16T10:54:36;5.88;;;3.30;;
18144;SDS011;14857;41.200;-8.326;2022-09-16T10:57:18;4.47;;;2.90;;
18144;SDS011;14857;41.200;-8.326;2022-09-16T10:59:57;3.75;;;3.00;;
18144;SDS011;14857;41.200;-8.326;2022-09-16T11:02:31;5.50;;;2.53;;
18144;SDS011;14857;41.200;-8.326;2022-09-16T11:05:44;4.50;;;2.70;;
18144;SDS011;14857;41.200;-8.326;2022-09-16T11:08:24;3.85;;;3.15;;
18144;SDS011;14857;41.200;-8.326;2022-09-16T11:11:06;6.32;;;2.70;;
18144;SDS011;14857;41.200;-8.326;2022-09-16T11:13:55;6.20;;;2.92;;
18144;SDS011;14857;41.200;-8.326;2022-09-16T11:16:37;6.78;;;3.35;;
18144;SDS011;14857;41.200;-8.326;2022-09-16T11:19:22;9.90;;;3.28;;
18144;SDS011;14857;41.200;-8.326;2022-09-16T11:22:03;4.80;;;3.50;;
18144;SDS011;14857;41.200;-8.326;2022-09-16T11:24:44;3.88;;;3.17;;
18144;SDS011;14857;41.200;-8.326;2022-09-16T11:27:27;3.35;;;2.65;;
18144;SDS011;14857;41.200;-8.326;2022-09-16T11:30:10;4.40;;;2.80;;
18144;SDS011;14857;41.200;-8.326;2022-09-16T11:32:48;6.10;;;3.78;;
18144;SDS011;14857;41.200;-8.326;2022-09-16T11:35:32;4.05;;;2.80;;
18144;SDS011;14857;41.200;-8.326;2022-09-16T11:38:14;5.70;;;3.38;;
18144;SDS011;14857;41.200;-8.326;2022-09-16T11:40:50;4.45;;;3.10;;
18144;SDS011;14857;41.200;-8.326;2022-09-16T11:43:34;5.25;;;3.38;;
18144;SDS011;14857;41.200;-8.326;2022-09-16T11:46:21;26.70;;;15.75;;
18144;SDS011;14857;41.200;-8.326;2022-09-16T11:49:00;6.22;;;4.40;;
18144;SDS011;14857;41.200;-8.326;2022-09-16T11:51:39;6.05;;;2.97;;
18144;SDS011;14857;41.200;-8.326;2022-09-16T11:54:22;3.28;;;2.00;;
18144;SDS011;14857;41.200;-8.326;2022-09-16T11:57:01;2.40;;;1.67;;
18144;SDS011;14857;41.200;-8.326;2022-09-16T11:59:36;2.67;;;1.98;;
18144;SDS011;14857;41.200;-8.326;2022-09-16T12:02:12;3.53;;;1.85;;
18144;SDS011;14857;41.200;-8.326;2022-09-16T12:04:49;14.88;;;8.73;;
18144;SDS011;14857;41.200;-8.326;2022-09-16T12:07:24;7.85;;;4.18;;
18144;SDS011;14857;41.200;-8.326;2022-09-16T12:09:58;4.03;;;2.88;;
18144;SDS011;14857;41.200;-8.326;2022-09-16T12:12:32;7.03;;;4.22;;
18144;SDS011;14857;41.200;-8.326;2022-09-16T12:15:11;3.70;;;2.05;;
18144;SDS011;14857;41.200;-8.326;2022-09-16T12:17:48;4.50;;;2.78;;
18144;SDS011;14857;41.200;-8.326;2022-09-16T12:20:20;3.78;;;2.15;;
18144;SDS011;14857;41.200;-8.326;2022-09-16T12:22:53;4.50;;;1.80;;
18144;SDS011;14857;41.200;-8.326;2022-09-16T12:25:30;3.17;;;2.10;;
18144;SDS011;14857;41.200;-8.326;2022-09-16T12:28:05;4.88;;;2.20;;
18144;SDS011;14857;41.200;-8.326;2022-09-16T12:30:41;3.35;;;2.38;;
18144;SDS011;14857;41.200;-8.326;2022-09-16T12:33:15;4.95;;;2.38;;
18144;SDS011;14857;41.200;-8.326;2022-09-16T12:35:50;2.78;;;2.05;;
18144;SDS011;14857;41.200;-8.326;2022-09-16T12:38:23;3.05;;;2.40;;
18144;SDS011;14857;41.200;-8.326;2022-09-16T12:40:56;8.05;;;5.32;;
18144;SDS011;14857;41.200;-8.326;2022-09-16T12:43:50;7.47;;;3.25;;
18144;SDS011;14857;41.200;-8.326;2022-09-16T12:47:05;7.70;;;4.47;;
18144;SDS011;14857;41.200;-8.326;2022-09-16T12:52:59;5.97;;;4.30;;
18144;SDS011;14857;41.200;-8.326;2022-09-16T12:55:56;5.28;;;3.92;;
18144;SDS011;14857;41.200;-8.326;2022-09-16T12:58:35;6.63;;;3.78;;
18144;SDS011;14857;41.200;-8.326;2022-09-16T13:01:17;6.63;;;3.92;;
18144;SDS011;14857;41.200;-8.326;2022-09-16T13:03:50;6.78;;;4.30;;
18144;SDS011;14857;41.200;-8.326;2022-09-16T13:06:26;11.27;;;5.32;;
18144;SDS011;14857;41.200;-8.326;2022-09-16T13:08:57;6.13;;;4.53;;
18144;SDS011;14857;41.200;-8.326;2022-09-16T13:11:50;7.68;;;4.32;;
18144;SDS011;14857;41.200;-8.326;2022-09-16T13:14:43;6.90;;;4.80;;
18144;SDS011;14857;41.200;-8.326;2022-09-16T13:17:13;11.55;;;5.07;;
18144;SDS011;14857;41.200;-8.326;2022-09-16T13:19:44;7.57;;;4.60;;
18144;SDS011;14857;41.200;-8.326;2022-09-16T13:22:20;8.75;;;4.57;;
18144;SDS011;14857;41.200;-8.326;2022-09-16T13:24:54;6.25;;;4.75;;
18144;SDS011;14857;41.200;-8.326;2022-09-16T13:27:33;8.38;;;4.43;;
18144;SDS011;14857;41.200;-8.326;2022-09-16T13:30:04;7.43;;;3.85;;
18144;SDS011;14857;41.200;-8.326;2022-09-16T13:32:42;6.72;;;4.47;;
18144;SDS011;14857;41.200;-8.326;2022-09-16T13:35:22;7.00;;;3.85;;
18144;SDS011;14857;41.200;-8.326;2022-09-16T13:38:18;5.68;;;4.05;;
18144;SDS011;14857;41.200;-8.326;2022-09-16T13:40:53;8.57;;;4.45;;
18144;SDS011;14857;41.200;-8.326;2022-09-16T13:43:30;10.32;;;3.80;;
18144;SDS011;14857;41.200;-8.326;2022-09-16T13:46:02;6.78;;;4.47;;
18144;SDS011;14857;41.200;-8.326;2022-09-16T13:48:34;10.20;;;5.45;;
18144;SDS011;14857;41.200;-8.326;2022-09-16T13:51:25;6.90;;;4.28;;
18144;SDS011;14857;41.200;-8.326;2022-09-16T13:53:55;6.78;;;3.88;;
18144;SDS011;14857;41.200;-8.326;2022-09-16T13:56:34;6.38;;;3.40;;
18144;SDS011;14857;41.200;-8.326;2022-09-16T13:59:16;7.70;;;3.55;;
18144;SDS011;14857;41.200;-8.326;2022-09-16T14:01:59;8.88;;;5.47;;
18144;SDS011;14857;41.200;-8.326;2022-09-16T14:04:41;9.52;;;4.43;;
18144;SDS011;14857;41.200;-8.326;2022-09-16T14:07:29;10.07;;;4.10;;
18144;SDS011;14857;41.200;-8.326;2022-09-16T14:10:09;11.82;;;4.05;;
18144;SDS011;14857;41.200;-8.326;2022-09-16T14:12:47;10.75;;;4.53;;
18144;SDS011;14857;41.200;-8.326;2022-09-16T14:15:23;8.38;;;4.18;;
18144;SDS011;14857;41.200;-8.326;2022-09-16T14:17:55;11.30;;;5.28;;
18144;SDS011;14857;41.200;-8.326;2022-09-16T14:20:27;8.18;;;4.22;;
18144;SDS011;14857;41.200;-8.326;2022-09-16T14:23:00;11.43;;;4.15;;
18144;SDS011;14857;41.200;-8.326;2022-09-16T14:25:32;7.85;;;3.72;;
18144;SDS011;14857;41.200;-8.326;2022-09-16T14:30:53;9.85;;;4.82;;
18144;SDS011;14857;41.200;-8.326;2022-09-16T14:33:24;15.45;;;5.28;;
18144;SDS011;14857;41.200;-8.326;2022-09-16T14:35:57;11.75;;;5.32;;
18144;SDS011;14857;41.200;-8.326;2022-09-16T14:38:30;7.13;;;4.45;;
18144;SDS011;14857;41.200;-8.326;2022-09-16T14:41:16;13.73;;;4.72;;
18144;SDS011;14857;41.200;-8.326;2022-09-16T14:43:51;10.40;;;6.03;;
18144;SDS011;14857;41.200;-8.326;2022-09-16T14:46:22;18.17;;;5.03;;
18144;SDS011;14857;41.200;-8.326;2022-09-16T14:48:52;9.15;;;4.80;;
18144;SDS011;14857;41.200;-8.326;2022-09-16T14:51:21;9.50;;;5.20;;
18144;SDS011;14857;41.200;-8.326;2022-09-16T14:53:54;8.48;;;4.47;;
18144;SDS011;14857;41.200;-8.326;2022-09-16T14:56:40;12.35;;;5.78;;
18144;SDS011;14857;41.200;-8.326;2022-09-16T14:59:09;10.75;;;5.65;;
18144;SDS011;14857;41.200;-8.326;2022-09-16T15:01:39;22.83;;;10.20;;
18144;SDS011;14857;41.200;-8.326;2022-09-16T15:04:10;13.25;;;5.72;;
18144;SDS011;14857;41.200;-8.326;2022-09-16T15:06:46;10.65;;;5.43;;
18144;SDS011;14857;41.200;-8.326;2022-09-16T15:09:21;10.27;;;5.18;;
18144;SDS011;14857;41.200;-8.326;2022-09-16T15:12:01;14.43;;;5.20;;
18144;SDS011;14857;41.200;-8.326;2022-09-16T15:14:37;10.15;;;5.25;;
18144;SDS011;14857;41.200;-8.326;2022-09-16T15:17:06;8.95;;;4.95;;
18144;SDS011;14857;41.200;-8.326;2022-09-16T15:19:36;10.43;;;5.40;;
18144;SDS011;14857;41.200;-8.326;2022-09-16T15:22:12;8.88;;;5.00;;
18144;SDS011;14857;41.200;-8.326;2022-09-16T15:24:42;12.30;;;5.20;;
18144;SDS011;14857;41.200;-8.326;2022-09-16T15:27:22;9.25;;;5.03;;